Time;durP1;ratioP1;P1;durP2;ratioP2;P2;SDS_P1;SDS_P2;PMS_P1;PMS_P2;Temp;Humidity;BMP_temperature;BMP_pressure;BME280_temperature;BME280_humidity;BME280_pressure;Samples;Min_cycle;Max_cycle;Signal;HPM_P1;HPM_P2
2021/10/10 00:00:15;;;;;;;23.45;10.38;;;;;;;1.91;97.54;96373.31;5049883;28;20045;-79
2021/10/10 00:03:01;;;;;;;24.80;11.13;;;;;;;1.94;97.01;96372.13;5056195;28;20048;-79
2021/10/10 00:05:26;;;;;;;29.73;11.38;;;;;;;1.90;97.08;96372.50;5037883;28;20417;-79
2021/10/10 00:07:52;;;;;;;25.30;10.27;;;;;;;1.88;97.53;96364.13;5050207;28;20053;-79
2021/10/10 00:10:18;;;;;;;24.42;10.85;;;;;;;1.88;97.21;96366.72;5052062;28;20075;-79
2021/10/10 00:12:44;;;;;;;24.17;10.80;;;;;;;1.79;97.25;96360.06;5048948;28;20080;-79
2021/10/10 00:15:12;;;;;;;23.67;11.95;;;;;;;1.70;97.93;96361.25;5048200;28;20036;-80
2021/10/10 00:17:38;;;;;;;25.38;11.10;;;;;;;1.76;98.03;96360.47;5041997;28;20112;-79
2021/10/10 00:20:05;;;;;;;33.28;11.80;;;;;;;1.75;98.60;96364.03;5031760;28;20124;-79
2021/10/10 00:22:31;;;;;;;27.05;12.05;;;;;;;1.65;98.84;96353.22;5054584;28;20044;-79
2021/10/10 00:24:56;;;;;;;32.45;12.57;;;;;;;1.63;99.60;96360.41;5049262;28;20044;-79
2021/10/10 00:27:23;;;;;;;27.77;11.95;;;;;;;1.71;98.53;96358.44;5051008;28;20508;-79
2021/10/10 00:29:49;;;;;;;31.63;12.55;;;;;;;1.75;97.89;96356.25;5048525;28;20033;-78
2021/10/10 00:32:15;;;;;;;24.90;11.20;;;;;;;1.82;97.21;96359.69;5036556;28;20120;-79
2021/10/10 00:34:40;;;;;;;29.38;11.43;;;;;;;1.83;96.34;96356.09;5038687;28;20477;-80
2021/10/10 00:37:06;;;;;;;25.10;11.23;;;;;;;1.78;96.74;96353.31;5050432;28;20057;-78
2021/10/10 00:39:32;;;;;;;29.10;11.60;;;;;;;1.76;96.67;96351.88;5054053;28;20114;-79
2021/10/10 00:41:58;;;;;;;28.38;11.65;;;;;;;1.66;96.70;96360.03;5032519;28;20048;-80
2021/10/10 00:44:25;;;;;;;29.80;12.55;;;;;;;1.71;96.71;96352.44;5041703;28;20041;-80
2021/10/10 00:46:50;;;;;;;30.65;12.20;;;;;;;1.69;97.18;96349.25;5042022;28;20493;-80
2021/10/10 00:49:16;;;;;;;29.00;12.15;;;;;;;1.64;97.39;96347.25;5038742;28;20049;-80
2021/10/10 00:51:44;;;;;;;28.52;12.15;;;;;;;1.65;97.27;96358.41;5016626;28;20048;-80
2021/10/10 00:54:11;;;;;;;30.38;12.48;;;;;;;1.50;97.41;96342.97;5040986;28;20048;-80
2021/10/10 00:56:37;;;;;;;28.55;11.45;;;;;;;1.54;97.55;96342.41;5049282;28;20044;-80
2021/10/10 00:59:05;;;;;;;29.00;11.75;;;;;;;1.51;97.19;96347.97;5051477;28;20055;-80
2021/10/10 01:01:31;;;;;;;30.50;11.80;;;;;;;1.51;97.60;96352.38;5027049;28;20529;-80
2021/10/10 01:03:57;;;;;;;28.85;12.70;;;;;;;1.45;97.50;96343.56;5048729;28;20136;-81
2021/10/10 01:06:23;;;;;;;30.58;12.60;;;;;;;1.32;98.10;96349.47;5049287;28;20041;-80
2021/10/10 01:08:49;;;;;;;29.30;12.75;;;;;;;1.38;97.06;96347.91;5048085;28;20041;-79
2021/10/10 01:11:16;;;;;;;34.65;13.65;;;;;;;1.36;97.49;96345.47;5032218;28;20040;-79
2021/10/10 01:13:42;;;;;;;36.05;14.75;;;;;;;1.31;97.58;96341.88;5047446;28;20041;-81
2021/10/10 01:16:09;;;;;;;37.10;14.25;;;;;;;1.35;96.79;96345.66;5043872;28;20403;-79
2021/10/10 01:18:34;;;;;;;38.83;14.27;;;;;;;1.40;96.72;96351.09;5034811;28;20071;-79
2021/10/10 01:21:00;;;;;;;38.45;13.77;;;;;;;1.42;96.71;96343.91;5058285;28;20458;-80
2021/10/10 01:23:26;;;;;;;38.25;12.60;;;;;;;1.43;96.61;96350.72;5039713;28;20079;-80
2021/10/10 01:25:52;;;;;;;27.38;12.43;;;;;;;1.41;96.35;96346.69;5050231;28;20072;-80
2021/10/10 01:28:18;;;;;;;32.75;12.95;;;;;;;1.40;96.70;96345.91;5048935;28;20041;-80
2021/10/10 01:30:44;;;;;;;28.80;12.13;;;;;;;1.35;96.03;96349.06;5050161;28;20102;-80
2021/10/10 01:33:12;;;;;;;27.77;11.75;;;;;;;1.34;95.35;96341.47;5040660;28;20466;-79
2021/10/10 01:35:40;;;;;;;33.47;12.15;;;;;;;1.20;96.27;96341.38;5029843;28;20041;-80
2021/10/10 01:38:06;;;;;;;26.25;12.18;;;;;;;1.15;96.28;96343.75;5029983;28;20108;-79
2021/10/10 01:40:37;;;;;;;28.35;12.85;;;;;;;1.12;96.75;96338.94;5048841;28;20044;-79
2021/10/10 01:43:04;;;;;;;26.30;11.60;;;;;;;1.14;96.02;96341.34;5049379;28;20052;-79
2021/10/10 01:45:30;;;;;;;31.77;11.85;;;;;;;1.13;96.50;96339.75;5039340;28;20073;-80
2021/10/10 01:47:55;;;;;;;32.08;12.02;;;;;;;1.23;95.92;96334.22;5029624;28;20081;-79
2021/10/10 01:50:21;;;;;;;28.98;12.00;;;;;;;1.25;96.82;96332.22;5028997;28;20494;-78
2021/10/10 01:52:49;;;;;;;30.48;11.75;;;;;;;1.18;96.27;96333.00;5055253;28;20045;-79
2021/10/10 01:55:15;;;;;;;29.10;12.13;;;;;;;1.10;96.65;96332.34;5049585;28;20045;-79
2021/10/10 01:57:41;;;;;;;28.00;12.02;;;;;;;1.14;95.97;96326.59;5031478;28;20045;-79
2021/10/10 02:00:08;;;;;;;30.05;10.85;;;;;;;1.08;96.46;96327.34;5049098;28;20045;-78
2021/10/10 02:02:34;;;;;;;28.50;11.30;;;;;;;1.11;96.82;96326.97;5045243;28;20049;-79
2021/10/10 02:04:59;;;;;;;25.58;11.43;;;;;;;1.06;97.27;96329.31;5049505;28;20454;-80
2021/10/10 02:07:25;;;;;;;33.17;11.68;;;;;;;1.05;96.89;96332.91;5049439;28;20095;-80
2021/10/10 02:09:51;;;;;;;26.23;10.60;;;;;;;0.99;96.62;96329.28;5048568;28;20049;-79
2021/10/10 02:12:16;;;;;;;23.25;11.07;;;;;;;0.91;96.86;96326.03;5029356;28;20787;-79
2021/10/10 02:14:42;;;;;;;25.92;11.23;;;;;;;0.79;98.18;96323.94;5054006;28;20100;-80
2021/10/10 02:17:08;;;;;;;25.90;10.35;;;;;;;0.85;96.28;96323.19;5041065;28;20073;-79
2021/10/10 02:19:34;;;;;;;27.95;10.52;;;;;;;0.82;96.71;96328.75;5050759;28;20037;-79
2021/10/10 02:21:59;;;;;;;23.75;10.40;;;;;;;0.62;96.64;96327.78;5048957;28;20044;-79
2021/10/10 02:24:25;;;;;;;25.40;11.07;;;;;;;0.62;97.07;96326.00;5051764;28;20118;-80
2021/10/10 02:26:51;;;;;;;26.40;10.93;;;;;;;0.65;97.32;96332.59;5052374;28;20495;-80
2021/10/10 02:29:17;;;;;;;26.77;10.10;;;;;;;0.56;97.49;96325.94;5051994;28;20076;-80
2021/10/10 02:31:43;;;;;;;28.55;10.63;;;;;;;0.44;97.49;96326.41;5050019;28;20745;-79
2021/10/10 02:34:10;;;;;;;27.13;11.05;;;;;;;0.51;97.27;96322.09;5040608;28;20092;-79
2021/10/10 02:36:35;;;;;;;25.08;10.68;;;;;;;0.38;97.62;96327.16;5047748;28;20041;-79
2021/10/10 02:39:01;;;;;;;26.83;11.20;;;;;;;0.36;97.56;96318.78;5051099;28;20037;-79
2021/10/10 02:41:27;;;;;;;22.05;10.45;;;;;;;0.38;97.13;96322.00;5034028;28;20054;-79
2021/10/10 02:43:52;;;;;;;29.38;10.90;;;;;;;0.47;96.91;96318.28;5052502;28;20041;-79
2021/10/10 02:46:18;;;;;;;24.10;10.90;;;;;;;0.51;96.68;96321.31;5035735;28;20112;-79
2021/10/10 02:48:43;;;;;;;22.65;10.25;;;;;;;0.55;96.32;96321.72;5038616;28;20044;-79
2021/10/10 02:51:09;;;;;;;21.90;9.52;;;;;;;0.49;96.51;96321.50;5062437;28;20049;-79
2021/10/10 02:53:34;;;;;;;26.80;11.50;;;;;;;0.46;96.38;96319.28;5045984;28;20079;-79
2021/10/10 02:56:00;;;;;;;22.60;10.23;;;;;;;0.50;96.05;96320.53;5044489;28;20087;-78
2021/10/10 02:58:25;;;;;;;22.73;10.60;;;;;;;0.43;96.06;96322.25;5034312;28;20045;-80
2021/10/10 03:00:51;;;;;;;23.38;10.48;;;;;;;0.34;96.62;96312.97;5051325;28;20054;-79
2021/10/10 03:03:16;;;;;;;25.42;10.63;;;;;;;0.29;96.85;96312.75;5051350;28;20037;-79
2021/10/10 03:05:42;;;;;;;24.35;10.52;;;;;;;0.44;95.85;96321.25;5052301;28;20037;-79
2021/10/10 03:08:07;;;;;;;22.40;10.35;;;;;;;0.33;95.85;96314.78;5051830;28;20101;-79
2021/10/10 03:10:33;;;;;;;23.52;10.18;;;;;;;0.28;95.75;96313.72;5050841;28;20065;-80
2021/10/10 03:12:59;;;;;;;23.83;10.70;;;;;;;0.29;95.79;96310.16;5051526;28;20049;-79
2021/10/10 03:15:24;;;;;;;23.55;10.13;;;;;;;0.21;96.75;96305.09;5047262;28;20121;-80
2021/10/10 03:17:50;;;;;;;23.17;10.45;;;;;;;0.16;96.45;96306.44;5052227;28;20505;-80
2021/10/10 03:20:15;;;;;;;25.02;10.85;;;;;;;0.21;96.82;96299.91;5030953;28;20120;-79
2021/10/10 03:22:41;;;;;;;23.35;10.43;;;;;;;0.13;96.57;96299.03;5047969;28;20048;-79
2021/10/10 03:25:07;;;;;;;21.50;10.18;;;;;;;0.12;96.83;96302.63;5052455;28;20045;-79
2021/10/10 03:27:32;;;;;;;25.20;10.77;;;;;;;0.04;96.94;96302.72;5053300;28;20414;-79
2021/10/10 03:29:58;;;;;;;30.17;10.60;;;;;;;0.04;97.22;96297.53;5051407;28;20037;-80
2021/10/10 03:32:23;;;;;;;24.45;11.07;;;;;;;0.03;96.68;96293.38;5039261;28;20661;-79
2021/10/10 03:34:49;;;;;;;23.48;11.13;;;;;;;0.03;96.46;96301.13;5030268;28;20037;-80
2021/10/10 03:37:14;;;;;;;27.52;11.00;;;;;;;-0.03;97.01;96304.44;5051103;28;20048;-80
2021/10/10 03:39:40;;;;;;;26.67;11.82;;;;;;;-0.09;97.16;96297.41;5052112;28;20049;-79
2021/10/10 03:42:05;;;;;;;26.02;11.20;;;;;;;0.04;96.53;96302.72;5026889;28;20036;-79
2021/10/10 03:44:31;;;;;;;22.42;10.65;;;;;;;0.03;96.42;96298.56;5049072;28;20049;-79
2021/10/10 03:46:57;;;;;;;25.30;10.93;;;;;;;-0.06;96.88;96299.63;5039293;28;20684;-79
2021/10/10 03:49:22;;;;;;;21.00;10.45;;;;;;;-0.11;97.09;96296.81;5051910;28;20148;-79
2021/10/10 03:51:48;;;;;;;28.88;11.40;;;;;;;-0.05;96.99;96296.84;5050936;28;20076;-79
2021/10/10 03:56:49;;;;;;;;;;;;;;;-0.17;97.17;96295.75;5048274;28;20148;-79
2021/10/10 03:59:14;;;;;;;27.17;10.73;;;;;;;-0.22;96.94;96296.25;5033780;28;19929;-79
2021/10/10 04:01:41;;;;;;;25.90;10.90;;;;;;;-0.12;97.31;96295.97;5049281;28;20131;-79
2021/10/10 04:04:07;;;;;;;29.35;11.48;;;;;;;-0.12;97.16;96290.81;5048213;28;20049;-79
2021/10/10 04:06:33;;;;;;;22.88;10.98;;;;;;;-0.14;96.84;96291.97;5050527;28;20036;-79
2021/10/10 04:08:58;;;;;;;25.30;11.80;;;;;;;-0.20;97.10;96289.13;5051600;28;20128;-79
2021/10/10 04:11:24;;;;;;;28.77;11.48;;;;;;;-0.18;96.79;96291.53;5041232;28;20533;-79
2021/10/10 04:13:50;;;;;;;37.58;12.20;;;;;;;-0.24;96.69;96293.06;5044579;28;20091;-79
2021/10/10 04:16:16;;;;;;;28.20;12.05;;;;;;;-0.23;96.91;96289.50;5047087;28;20072;-79
2021/10/10 04:18:41;;;;;;;24.00;12.18;;;;;;;-0.27;96.77;96283.09;5050248;28;20648;-78
2021/10/10 04:21:06;;;;;;;26.73;11.05;;;;;;;-0.24;96.39;96281.94;5024510;28;20128;-79
2021/10/10 04:23:32;;;;;;;30.83;12.25;;;;;;;-0.35;96.68;96280.59;5050309;28;20052;-79
2021/10/10 04:25:58;;;;;;;26.45;12.07;;;;;;;-0.36;97.09;96291.91;5033767;28;20120;-79
2021/10/10 04:28:24;;;;;;;29.15;12.40;;;;;;;-0.48;97.43;96286.41;5050182;28;20490;-79
2021/10/10 04:30:50;;;;;;;27.75;11.27;;;;;;;-0.47;97.33;96292.41;5049746;28;20040;-79
2021/10/10 04:33:16;;;;;;;31.15;12.00;;;;;;;-0.44;97.51;96292.03;5046883;28;20060;-79
2021/10/10 04:35:43;;;;;;;26.42;12.32;;;;;;;-0.50;97.36;96290.16;5045982;28;20041;-79
2021/10/10 04:38:09;;;;;;;27.83;11.63;;;;;;;-0.56;97.45;96289.91;5048793;28;20041;-79
2021/10/10 04:40:35;;;;;;;30.65;11.48;;;;;;;-0.59;97.70;96289.44;5050716;28;20520;-78
2021/10/10 04:43:00;;;;;;;26.70;11.45;;;;;;;-0.58;97.98;96289.28;5047176;28;20096;-79
2021/10/10 04:45:26;;;;;;;26.05;11.50;;;;;;;-0.70;97.28;96288.13;5028037;28;20045;-79
2021/10/10 04:47:51;;;;;;;28.98;11.82;;;;;;;-0.61;97.44;96287.06;5042969;28;20547;-79
2021/10/10 04:50:17;;;;;;;27.88;11.55;;;;;;;-0.67;97.40;96292.94;5048126;28;20448;-79
2021/10/10 04:52:42;;;;;;;26.58;11.38;;;;;;;-0.71;97.08;96291.69;5047734;28;20565;-79
2021/10/10 04:55:08;;;;;;;28.45;12.10;;;;;;;-0.71;97.55;96287.31;5045716;28;20045;-79
2021/10/10 04:57:34;;;;;;;26.63;11.80;;;;;;;-0.75;97.54;96295.63;5037666;28;20049;-79
2021/10/10 04:59:59;;;;;;;29.70;12.63;;;;;;;-0.73;97.40;96288.50;5050018;28;20040;-78
2021/10/10 05:02:25;;;;;;;26.60;12.43;;;;;;;-0.65;96.91;96290.19;5051037;28;20096;-79
2021/10/10 05:04:51;;;;;;;30.30;12.40;;;;;;;-0.64;97.10;96292.59;5048954;28;20049;-79
2021/10/10 05:07:18;;;;;;;28.55;11.75;;;;;;;-0.66;96.78;96294.56;5049870;28;20037;-79
2021/10/10 05:09:43;;;;;;;26.10;12.40;;;;;;;-0.78;96.56;96295.97;5047211;28;20499;-79
2021/10/10 05:12:09;;;;;;;30.90;12.88;;;;;;;-0.80;97.15;96298.75;5014637;28;20045;-79
2021/10/10 05:14:35;;;;;;;24.63;11.57;;;;;;;-0.88;97.51;96302.22;5036113;28;20041;-79
2021/10/10 05:17:01;;;;;;;29.45;11.75;;;;;;;-0.91;97.97;96301.75;5054853;28;20406;-79
2021/10/10 05:19:26;;;;;;;29.48;11.85;;;;;;;-0.91;97.96;96307.72;5052380;28;20040;-79
2021/10/10 05:21:52;;;;;;;29.45;12.40;;;;;;;-0.72;97.48;96300.41;5067142;28;20728;-79
2021/10/10 05:24:17;;;;;;;29.48;11.55;;;;;;;-0.80;97.24;96303.13;5031309;28;20049;-80
2021/10/10 05:26:43;;;;;;;26.42;11.82;;;;;;;-0.78;97.52;96307.09;5034883;28;20057;-79
2021/10/10 05:29:09;;;;;;;28.48;11.70;;;;;;;-0.74;97.18;96305.78;5048909;28;20040;-79
2021/10/10 05:31:34;;;;;;;31.02;12.80;;;;;;;-0.75;97.09;96311.13;5046050;28;20037;-79
2021/10/10 05:34:00;;;;;;;24.95;11.55;;;;;;;-0.76;96.61;96309.50;5038721;28;20077;-79
2021/10/10 05:36:27;;;;;;;23.48;11.38;;;;;;;-0.80;97.53;96300.53;5048656;28;20490;-79
2021/10/10 05:38:53;;;;;;;27.63;11.98;;;;;;;-0.85;97.37;96310.59;5048947;28;20088;-79
2021/10/10 05:41:18;;;;;;;24.48;11.65;;;;;;;-0.91;97.58;96302.53;5047439;28;20072;-79
2021/10/10 05:43:44;;;;;;;25.65;11.98;;;;;;;-0.82;97.53;96310.22;5050350;28;20045;-79
2021/10/10 05:46:10;;;;;;;26.80;11.63;;;;;;;-0.82;97.53;96305.06;5042249;28;20861;-79
2021/10/10 05:48:35;;;;;;;35.45;12.63;;;;;;;-0.87;98.09;96313.34;5061005;28;20095;-79
2021/10/10 05:51:01;;;;;;;28.83;12.27;;;;;;;-0.65;96.77;96306.47;5064051;28;20045;-79
2021/10/10 05:53:27;;;;;;;27.58;11.13;;;;;;;-0.59;96.16;96307.56;5047996;28;20036;-79
2021/10/10 05:56:00;;;;;;;23.90;11.68;;;;;;;-0.56;96.00;96315.75;5042273;28;20033;-80
2021/10/10 05:58:27;;;;;;;28.30;12.30;;;;;;;-0.67;96.39;96313.63;5043808;28;20056;-79
2021/10/10 06:00:54;;;;;;;31.90;12.85;;;;;;;-0.76;96.99;96319.84;5060199;28;20037;-79
2021/10/10 06:03:20;;;;;;;28.45;11.23;;;;;;;-0.76;97.27;96319.84;5048987;28;20056;-78
2021/10/10 06:05:47;;;;;;;28.13;12.25;;;;;;;-0.77;97.84;96323.44;5052294;28;20040;-79
2021/10/10 06:08:12;;;;;;;29.83;11.55;;;;;;;-0.78;98.49;96321.81;5034793;28;20041;-78
2021/10/10 06:10:39;;;;;;;34.70;12.35;;;;;;;-0.68;98.00;96322.34;5043560;28;20517;-79
2021/10/10 06:13:07;;;;;;;26.70;11.55;;;;;;;-0.61;98.13;96322.44;5033841;28;20547;-79
2021/10/10 06:15:32;;;;;;;25.02;10.57;;;;;;;-0.61;98.22;96323.25;5045278;28;20072;-79
2021/10/10 06:17:58;;;;;;;36.30;12.07;;;;;;;-0.50;97.86;96323.78;5069890;28;20072;-79
2021/10/10 06:20:24;;;;;;;28.98;11.52;;;;;;;-0.50;97.89;96328.94;5053169;28;20092;-78
2021/10/10 06:22:49;;;;;;;27.48;12.10;;;;;;;-0.50;97.89;96329.75;5044638;28;20044;-79
2021/10/10 06:25:15;;;;;;;28.08;12.27;;;;;;;-0.49;97.98;96323.59;5053090;28;20045;-78
2021/10/10 06:27:41;;;;;;;25.67;12.23;;;;;;;-0.47;98.76;96323.44;5052722;28;20493;-80
2021/10/10 06:30:07;;;;;;;31.92;12.40;;;;;;;-0.37;98.78;96334.31;5052895;28;20041;-78
2021/10/10 06:32:32;;;;;;;32.97;12.05;;;;;;;-0.32;99.01;96324.22;5042424;28;20117;-79
2021/10/10 06:34:58;;;;;;;27.85;12.07;;;;;;;-0.09;98.92;96331.03;5071424;28;20048;-79
2021/10/10 06:37:23;;;;;;;38.20;13.20;;;;;;;-0.04;98.59;96333.91;5046851;28;20051;-79
2021/10/10 06:39:49;;;;;;;27.33;12.43;;;;;;;-0.01;98.83;96333.53;5058221;28;20049;-79
2021/10/10 06:42:16;;;;;;;34.03;12.93;;;;;;;0.05;99.26;96332.81;5049803;28;20048;-79
2021/10/10 06:44:42;;;;;;;30.90;11.68;;;;;;;0.36;98.66;96329.16;5049722;28;20466;-79
2021/10/10 06:47:07;;;;;;;35.42;13.25;;;;;;;0.45;98.43;96328.03;5042079;28;20073;-78
2021/10/10 06:49:33;;;;;;;36.47;13.15;;;;;;;0.55;99.19;96327.72;5051969;28;20041;-79
2021/10/10 06:51:59;;;;;;;29.40;13.68;;;;;;;0.66;98.87;96334.19;5051774;28;20040;-79
2021/10/10 06:54:24;;;;;;;28.45;12.75;;;;;;;0.79;98.58;96333.50;5063132;28;20036;-78
2021/10/10 06:56:50;;;;;;;34.67;14.30;;;;;;;0.84;99.19;96326.75;5070129;28;20063;-79
2021/10/10 06:59:15;;;;;;;36.15;14.57;;;;;;;1.00;99.75;96324.91;5072342;28;20040;-78
2021/10/10 07:01:41;;;;;;;39.13;14.10;;;;;;;1.11;100.00;96337.34;5067495;28;20041;-79
2021/10/10 07:04:07;;;;;;;33.67;14.40;;;;;;;1.23;99.38;96336.81;5043402;28;20069;-78
2021/10/10 07:06:32;;;;;;;34.63;14.82;;;;;;;1.19;99.81;96334.63;5046312;28;20041;-79
2021/10/10 07:08:58;;;;;;;37.30;15.15;;;;;;;1.39;99.79;96339.09;5052101;28;20072;-79
2021/10/10 07:11:23;;;;;;;37.08;15.23;;;;;;;1.60;99.10;96346.00;5033564;28;20065;-78
2021/10/10 07:13:49;;;;;;;30.85;13.40;;;;;;;1.68;98.36;96340.69;5052079;28;20041;-78
2021/10/10 07:16:15;;;;;;;29.25;12.48;;;;;;;1.72;97.08;96348.88;5037871;28;20032;-78
2021/10/10 07:26:20;;;;;;;32.83;13.27;;;;;;;1.92;97.52;96353.34;5052253;28;20065;-79
2021/10/10 07:28:46;;;;;;;31.42;13.45;;;;;;;1.94;97.07;96351.34;5052377;28;20048;-79
2021/10/10 07:31:12;;;;;;;32.78;14.15;;;;;;;1.96;97.33;96346.78;5052127;28;20155;-78
2021/10/10 07:33:38;;;;;;;29.73;14.25;;;;;;;2.04;98.27;96351.78;5050330;28;20497;-79
2021/10/10 07:36:04;;;;;;;32.35;15.23;;;;;;;2.11;95.94;96346.63;5051254;28;20520;-79
2021/10/10 07:38:29;;;;;;;32.15;14.23;;;;;;;2.10;97.02;96360.59;5035643;28;20068;-78
2021/10/10 07:40:56;;;;;;;32.60;14.95;;;;;;;2.17;96.84;96357.03;5052979;28;20040;-79
2021/10/10 07:43:22;;;;;;;32.20;14.32;;;;;;;2.18;96.59;96357.84;5046434;28;20036;-79
2021/10/10 07:45:48;;;;;;;36.70;15.88;;;;;;;2.33;97.63;96361.09;5042869;28;20094;-78
2021/10/10 07:48:13;;;;;;;33.10;14.40;;;;;;;2.54;96.33;96347.16;5049170;28;20044;-79
2021/10/10 07:50:42;;;;;;;36.97;15.07;;;;;;;2.69;95.59;96353.97;5057507;28;20123;-78
2021/10/10 07:53:08;;;;;;;33.15;15.38;;;;;;;2.76;95.94;96349.56;5023953;28;20046;-79
2021/10/10 07:55:34;;;;;;;33.15;15.18;;;;;;;2.93;95.30;96350.78;5031718;28;20418;-79
2021/10/10 07:58:00;;;;;;;33.67;15.00;;;;;;;3.05;94.59;96352.78;5050230;28;20754;-79
2021/10/10 08:00:29;;;;;;;34.67;15.73;;;;;;;3.18;95.09;96352.75;5043671;28;20091;-78
2021/10/10 08:02:58;;;;;;;36.70;16.92;;;;;;;3.03;94.63;96354.75;5025883;28;20046;-78
2021/10/10 08:05:26;;;;;;;38.00;17.65;;;;;;;3.03;94.97;96359.97;5032408;28;20719;-80
2021/10/10 08:07:53;;;;;;;42.88;18.70;;;;;;;3.33;94.03;96359.56;5049738;28;20048;-79
2021/10/10 08:10:19;;;;;;;39.20;17.38;;;;;;;3.49;93.44;96359.13;5032773;28;20091;-79
2021/10/10 08:12:46;;;;;;;36.20;16.63;;;;;;;3.78;91.71;96357.06;5049640;28;20053;-80
2021/10/10 08:15:12;;;;;;;40.80;17.05;;;;;;;3.91;91.69;96351.81;5043869;28;20053;-79
2021/10/10 08:17:38;;;;;;;43.63;17.65;;;;;;;4.02;91.34;96357.38;5046166;28;20041;-79
2021/10/10 08:20:05;;;;;;;42.13;16.92;;;;;;;4.09;90.32;96353.72;5050407;28;20071;-78
2021/10/10 08:22:33;;;;;;;33.50;16.20;;;;;;;4.05;90.31;96351.75;5051372;28;20041;-79
2021/10/10 08:25:00;;;;;;;38.90;17.02;;;;;;;4.20;90.67;96357.50;5049011;28;20432;-78
2021/10/10 08:27:25;;;;;;;41.10;18.23;;;;;;;4.12;90.73;96352.53;5051462;28;20041;-79
2021/10/10 08:29:51;;;;;;;39.20;17.10;;;;;;;3.98;90.39;96357.78;5051720;28;20033;-79
2021/10/10 08:32:17;;;;;;;41.90;17.30;;;;;;;3.98;90.78;96359.63;5050039;28;20045;-78
2021/10/10 08:34:42;;;;;;;43.95;18.48;;;;;;;4.04;90.41;96361.38;5049833;28;20037;-78
2021/10/10 08:37:08;;;;;;;39.45;17.45;;;;;;;4.09;90.38;96365.97;5053384;28;20146;-78
2021/10/10 08:39:34;;;;;;;53.17;20.42;;;;;;;4.22;90.58;96368.50;5057975;28;20045;-78
2021/10/10 08:42:03;;;;;;;51.97;20.48;;;;;;;4.08;91.43;96370.38;5046103;28;20048;-79
2021/10/10 08:44:32;;;;;;;51.53;19.80;;;;;;;4.32;91.08;96374.09;5046589;28;20521;-79
2021/10/10 08:47:03;;;;;;;51.13;21.48;;;;;;;4.50;91.09;96376.00;5035791;28;20049;-78
2021/10/10 08:49:31;;;;;;;48.25;21.00;;;;;;;4.56;90.41;96373.56;5053638;28;20037;-78
2021/10/10 08:52:03;;;;;;;49.20;20.42;;;;;;;4.66;90.07;96366.88;5057876;28;20067;-79
2021/10/10 08:54:28;;;;;;;46.13;20.25;;;;;;;4.74;89.50;96370.22;5055921;28;20667;-78
2021/10/10 08:56:54;;;;;;;48.97;19.85;;;;;;;4.85;88.11;96372.16;5045100;28;20116;-78
2021/10/10 08:59:21;;;;;;;43.38;18.95;;;;;;;4.81;88.14;96371.81;5049510;28;20041;-79
2021/10/10 09:01:48;;;;;;;45.28;20.00;;;;;;;4.89;87.78;96368.13;5036909;28;20037;-77
2021/10/10 09:04:14;;;;;;;50.75;19.85;;;;;;;4.99;88.69;96373.66;5048161;28;20063;-79
2021/10/10 09:06:43;;;;;;;50.70;21.42;;;;;;;5.08;87.52;96371.59;5046657;28;20528;-79
2021/10/10 09:09:28;;;;;;;46.42;20.63;;;;;;;5.17;88.64;96370.34;5049780;28;20045;-79
2021/10/10 09:11:57;;;;;;;;;;;;;;;5.15;88.36;96371.56;5048557;28;20040;-79
2021/10/10 09:14:22;;;;;;;47.95;19.88;;;;;;;5.31;87.01;96371.00;5049724;28;20007;-80
2021/10/10 09:16:48;;;;;;;43.58;20.00;;;;;;;5.42;87.81;96363.50;5050755;28;20120;-78
2021/10/10 09:19:30;;;;;;;45.90;20.15;;;;;;;5.53;86.93;96362.78;5049436;28;20040;-79
2021/10/10 09:22:01;;;;;;;54.28;22.63;;;;;;;5.56;87.90;96357.13;5057833;28;20044;-81
2021/10/10 09:24:27;;;;;;;52.88;21.52;;;;;;;5.61;86.74;96365.09;5055040;28;20427;-79
2021/10/10 09:26:53;;;;;;;48.08;20.35;;;;;;;5.76;86.38;96361.34;5047521;28;20044;-78
2021/10/10 09:29:43;;;;;;;49.60;21.38;;;;;;;5.97;85.10;96363.53;5050152;28;20406;-79
2021/10/10 09:32:13;;;;;;;47.47;21.00;;;;;;;6.02;85.28;96366.31;5036009;28;20041;-79
2021/10/10 09:34:41;;;;;;;48.63;20.58;;;;;;;6.17;84.79;96362.53;5044105;28;20041;-79
2021/10/10 09:39:51;;;;;;;50.17;20.45;;;;;;;6.39;82.83;96360.22;5047987;28;20044;-78
2021/10/10 09:42:37;;;;;;;46.13;20.58;;;;;;;6.49;82.26;96359.69;5044527;28;20260;-79
2021/10/10 09:45:15;;;;;;;45.15;18.92;;;;;;;6.53;82.63;96353.78;5043574;28;20046;-78
2021/10/10 09:47:58;;;;;;;42.75;19.40;;;;;;;6.91;81.62;96357.06;5038681;28;20041;-79
2021/10/10 09:50:26;;;;;;;45.15;20.30;;;;;;;7.41;79.52;96351.47;5050055;28;20048;-79
2021/10/10 09:53:06;;;;;;;45.35;20.67;;;;;;;7.46;79.74;96364.66;5028689;28;20044;-80
2021/10/10 09:55:37;;;;;;;43.30;19.48;;;;;;;8.87;72.99;96355.84;5041020;28;20061;-78
2021/10/10 09:58:03;;;;;;;44.20;20.40;;;;;;;9.71;70.98;96355.00;5029208;28;20045;-80
2021/10/10 10:00:32;;;;;;;44.15;20.23;;;;;;;10.15;69.22;96355.00;5031783;28;20525;-80
2021/10/10 10:03:11;;;;;;;40.60;19.27;;;;;;;10.30;68.37;96361.50;5047962;28;20060;-80
2021/10/10 10:05:38;;;;;;;44.20;19.45;;;;;;;11.05;66.65;96351.19;5032179;28;20496;-79
2021/10/10 10:08:04;;;;;;;40.58;19.05;;;;;;;11.43;66.49;96365.16;5057480;28;20054;-80
2021/10/10 10:10:32;;;;;;;44.13;19.25;;;;;;;12.05;62.54;96345.25;5037267;28;20066;-80
2021/10/10 10:13:00;;;;;;;37.92;17.98;;;;;;;11.76;64.24;96350.06;5056389;28;20135;-79
2021/10/10 10:15:27;;;;;;;40.00;18.13;;;;;;;10.65;65.47;96352.44;5030321;28;20064;-78
2021/10/10 10:17:54;;;;;;;38.58;19.48;;;;;;;10.61;64.27;96346.84;5061791;28;20045;-79
2021/10/10 10:20:20;;;;;;;40.85;18.75;;;;;;;11.81;64.04;96336.94;5032947;28;20051;-80
2021/10/10 10:22:50;;;;;;;40.20;18.42;;;;;;;11.85;63.79;96343.28;5054426;28;20048;-79
2021/10/10 10:25:16;;;;;;;42.13;20.02;;;;;;;11.52;64.55;96345.22;5038142;28;20121;-80
2021/10/10 10:27:41;;;;;;;41.63;18.98;;;;;;;12.37;62.21;96348.75;5036507;28;20048;-82
2021/10/10 10:30:07;;;;;;;37.65;18.25;;;;;;;12.53;59.94;96342.47;5053568;28;20425;-81
2021/10/10 10:32:34;;;;;;;40.95;19.27;;;;;;;11.70;64.01;96345.84;5058158;28;20053;-81
2021/10/10 10:35:11;;;;;;;39.60;19.73;;;;;;;13.04;60.16;96346.22;5040403;28;20116;-81
2021/10/10 10:37:43;;;;;;;41.58;19.63;;;;;;;12.04;61.23;96345.47;5052719;28;20060;-81
2021/10/10 10:40:33;;;;;;;43.53;19.60;;;;;;;11.75;63.10;96344.03;5072153;28;20064;-82
2021/10/10 10:43:04;;;;;;;37.55;19.63;;;;;;;12.74;59.80;96337.22;5049798;28;20041;-80
2021/10/10 10:45:38;;;;;;;41.80;19.65;;;;;;;13.18;58.50;96342.00;5045963;28;20080;-80
2021/10/10 10:48:27;;;;;;;38.03;18.35;;;;;;;12.22;59.83;96337.09;5048506;28;20041;-81
2021/10/10 10:51:14;;;;;;;40.47;18.15;;;;;;;13.17;57.57;96329.84;5053993;28;20037;-81
2021/10/10 10:53:40;;;;;;;33.15;18.13;;;;;;;12.57;58.85;96337.47;5053977;28;20709;-81
2021/10/10 10:56:05;;;;;;;44.28;19.17;;;;;;;13.25;60.32;96331.94;5054886;28;20045;-81
2021/10/10 10:58:45;;;;;;;45.95;19.73;;;;;;;13.78;56.69;96339.56;5054638;28;20533;-83
2021/10/10 11:01:10;;;;;;;41.03;18.90;;;;;;;13.36;58.86;96340.72;5054284;28;20044;-79
2021/10/10 11:03:36;;;;;;;39.75;19.63;;;;;;;13.52;57.48;96338.84;5053921;28;20033;-78
2021/10/10 11:06:19;;;;;;;40.00;19.10;;;;;;;14.24;57.29;96329.84;5054164;28;20041;-80
2021/10/10 11:08:45;;;;;;;40.42;19.38;;;;;;;14.16;55.77;96339.16;5049514;28;20044;-80
2021/10/10 11:11:17;;;;;;;44.70;19.35;;;;;;;14.50;56.58;96335.81;5049758;28;20055;-80
2021/10/10 11:14:18;;;;;;;40.60;19.67;;;;;;;14.22;56.50;96338.06;5052463;28;20119;-79
2021/10/10 11:16:43;;;;;;;38.97;19.27;;;;;;;15.24;54.00;96335.84;5019297;28;20071;-80
2021/10/10 11:19:11;;;;;;;33.85;17.67;;;;;;;15.06;53.67;96330.16;5036085;28;20045;-79
2021/10/10 11:21:42;;;;;;;35.83;18.55;;;;;;;14.99;53.16;96324.38;5056092;28;20037;-80
2021/10/10 11:24:18;;;;;;;40.65;19.67;;;;;;;14.77;55.47;96327.47;5054246;28;20633;-81
2021/10/10 11:26:46;;;;;;;49.28;20.02;;;;;;;13.59;57.14;96320.03;5033707;28;20084;-81
2021/10/10 11:29:15;;;;;;;41.17;20.10;;;;;;;15.15;54.44;96316.31;5034387;28;20050;-80
2021/10/10 11:31:44;;;;;;;41.92;20.42;;;;;;;13.06;58.86;96313.22;5033588;28;20045;-79
2021/10/10 11:34:17;;;;;;;40.63;19.30;;;;;;;13.93;58.04;96314.91;5033217;28;20049;-81